Time;durP1;ratioP1;P1;durP2;ratioP2;P2;SDS_P1;SDS_P2;PMS_P1;PMS_P2;Temp;Humidity;BMP_temperature;BMP_pressure;BME280_temperature;BME280_humidity;BME280_pressure;Samples;Min_cycle;Max_cycle;Signal;HPM_P1;HPM_P2
2021/05/15 00:02:16;;;;;;;1999.90;999.90;;;;;;;11.79;100.00;-18222.84;5119904;28;20284;-32
2021/05/15 00:05:01;;;;;;;1999.90;999.90;;;;;;;11.39;100.00;-18212.28;5119162;28;20588;-32
2021/05/15 00:07:49;;;;;;;1999.90;999.90;;;;;;;11.35;100.00;-18211.22;5119004;28;20202;-35
2021/05/15 00:10:40;;;;;;;1999.90;999.90;;;;;;;11.35;100.00;-18211.38;5119198;28;20198;-35
2021/05/15 00:13:28;;;;;;;1999.90;999.90;;;;;;;11.15;100.00;-18206.00;5118703;28;20569;-33
2021/05/15 00:16:13;;;;;;;1999.90;999.90;;;;;;;10.96;100.00;-18200.94;5119111;28;20253;-33
2021/05/15 00:19:00;;;;;;;1999.90;999.90;;;;;;;11.01;100.00;-18202.28;5118811;28;20201;-32
2021/05/15 00:21:45;;;;;;;1999.90;999.90;;;;;;;10.76;100.00;-18195.59;5118457;28;20573;-35
2021/05/15 00:24:31;;;;;;;1999.90;999.90;;;;;;;10.77;100.00;-18196.00;5118955;28;20196;-34
2021/05/15 00:27:16;;;;;;;1999.90;999.90;;;;;;;10.73;100.00;-18194.78;5118784;28;20197;-36
2021/05/15 00:30:00;;;;;;;1999.90;999.90;;;;;;;10.76;100.00;-18195.72;5118957;28;20353;-34
2021/05/15 00:32:46;;;;;;;1999.90;999.90;;;;;;;10.84;100.00;-18197.84;5118516;28;20264;-35
2021/05/15 00:35:32;;;;;;;1999.90;999.90;;;;;;;10.87;100.00;-18198.53;5118270;28;20209;-34
2021/05/15 00:38:20;;;;;;;1999.90;999.90;;;;;;;10.80;100.00;-18196.66;5118495;28;20220;-35
2021/05/15 00:41:05;;;;;;;1999.90;999.90;;;;;;;10.74;100.00;-18195.06;5118446;28;20269;-38
2021/05/15 00:43:59;;;;;;;1999.90;999.90;;;;;;;10.91;100.00;-18199.72;5118444;28;20194;-38
2021/05/15 00:46:47;;;;;;;1999.90;999.90;;;;;;;10.92;100.00;-18200.00;5118281;28;20204;-35
2021/05/15 00:49:32;;;;;;;1999.90;999.90;;;;;;;10.92;100.00;-18199.88;5118142;28;20203;-35
2021/05/15 00:52:27;;;;;;;1999.90;999.90;;;;;;;10.91;100.00;-18199.72;5117995;28;20502;-34
2021/05/15 00:55:13;;;;;;;1999.90;999.90;;;;;;;10.88;100.00;-18198.94;5118294;28;20195;-36
2021/05/15 00:57:59;;;;;;;1999.90;999.90;;;;;;;11.01;100.00;-18202.28;5118157;28;20675;-35
2021/05/15 01:00:44;;;;;;;1999.90;999.90;;;;;;;11.07;100.00;-18203.75;5118369;28;20205;-35
2021/05/15 01:03:29;;;;;;;1999.90;999.90;;;;;;;11.00;100.00;-18202.00;5117972;28;20192;-34
2021/05/15 01:06:18;;;;;;;1999.90;999.90;;;;;;;10.87;100.00;-18198.53;5118459;28;20572;-37
2021/05/15 01:09:07;;;;;;;1999.90;999.90;;;;;;;11.08;100.00;-18204.16;5118034;28;20208;-33
2021/05/15 01:11:52;;;;;;;1999.90;999.90;;;;;;;11.27;100.00;-18209.22;5118040;28;20241;-36
2021/05/15 01:14:38;;;;;;;1999.90;999.90;;;;;;;10.97;100.00;-18201.34;5117696;28;20236;-36
2021/05/15 01:17:24;;;;;;;1999.90;999.90;;;;;;;11.14;100.00;-18205.63;5117754;28;20201;-32
2021/05/15 01:20:10;;;;;;;1999.90;999.90;;;;;;;11.11;100.00;-18204.94;5117840;28;20363;-37
2021/05/15 01:23:00;;;;;;;1999.90;999.90;;;;;;;11.34;100.00;-18210.97;5117069;28;20206;-34
2021/05/15 01:25:48;;;;;;;1999.90;999.90;;;;;;;11.31;100.00;-18210.16;5116982;28;20197;-36
2021/05/15 01:28:33;;;;;;;1999.90;999.90;;;;;;;11.19;100.00;-18206.94;5117236;28;20202;-36
2021/05/15 01:31:18;;;;;;;1999.90;999.90;;;;;;;11.40;100.00;-18212.69;5117117;28;20252;-33
2021/05/15 01:34:06;;;;;;;1999.90;999.90;;;;;;;11.36;100.00;-18211.63;5116588;28;20230;-35
2021/05/15 01:36:51;;;;;;;1999.90;999.90;;;;;;;11.43;100.00;-18213.22;5116850;28;20557;-34
2021/05/15 01:39:38;;;;;;;1999.90;999.90;;;;;;;11.58;100.00;-18217.25;5117042;28;20201;-38
2021/05/15 01:42:26;;;;;;;1999.90;999.90;;;;;;;11.66;100.00;-18219.38;5117301;28;20194;-35
2021/05/15 01:45:11;;;;;;;1999.90;999.90;;;;;;;11.60;100.00;-18217.78;5117415;28;20262;-35
2021/05/15 01:47:56;;;;;;;1999.90;999.90;;;;;;;11.63;100.00;-18218.72;5117036;28;20215;-32
2021/05/15 01:50:45;;;;;;;1999.90;999.90;;;;;;;11.95;100.00;-18227.13;5116977;28;20202;-33
2021/05/15 01:53:33;;;;;;;1999.90;999.90;;;;;;;11.76;100.00;-18221.91;5117130;28;20260;-34
2021/05/15 01:56:22;;;;;;;1999.90;999.90;;;;;;;11.99;100.00;-18228.06;5117155;28;20559;-35
2021/05/15 01:59:10;;;;;;;1999.90;999.90;;;;;;;11.82;100.00;-18223.66;5117290;28;20481;-33
2021/05/15 02:01:55;;;;;;;1999.90;999.90;;;;;;;12.01;100.00;-18228.72;5116976;28;20197;-33
2021/05/15 02:04:43;;;;;;;1999.90;999.90;;;;;;;12.10;100.00;-18230.88;5117323;28;20191;-35
2021/05/15 02:07:31;;;;;;;1999.90;999.90;;;;;;;12.22;100.00;-18234.19;5117362;28;20197;-37
2021/05/15 02:10:16;;;;;;;1999.90;999.90;;;;;;;12.02;100.00;-18228.88;5117697;28;20210;-36
2021/05/15 02:13:02;;;;;;;1999.90;999.90;;;;;;;12.17;100.00;-18232.75;5116680;28;20501;-33
2021/05/15 02:15:47;;;;;;;1999.90;999.90;;;;;;;12.17;100.00;-18232.75;5116993;28;20476;-34
2021/05/15 02:18:35;;;;;;;1999.90;999.90;;;;;;;12.12;100.00;-18231.53;5116664;28;20258;-33
2021/05/15 02:21:20;;;;;;;1999.90;999.90;;;;;;;11.96;100.00;-18227.41;5117155;28;20205;-35
2021/05/15 02:24:06;;;;;;;1999.90;999.90;;;;;;;11.87;100.00;-18225.00;5117050;28;20197;-34
2021/05/15 02:26:52;;;;;;;1999.90;999.90;;;;;;;11.84;100.00;-18224.06;5117154;28;20192;-33
2021/05/15 02:29:41;;;;;;;1999.90;999.90;;;;;;;11.72;100.00;-18221.13;5117030;28;20254;-35
2021/05/15 02:32:28;;;;;;;1999.90;999.90;;;;;;;11.36;100.00;-18211.63;5117271;28;20280;-35
2021/05/15 02:35:13;;;;;;;1999.90;999.90;;;;;;;11.30;100.00;-18209.88;5117151;28;20199;-37
2021/05/15 02:37:58;;;;;;;1999.90;999.90;;;;;;;11.07;100.00;-18203.88;5117098;28;20198;-32
2021/05/15 02:40:45;;;;;;;1999.90;999.90;;;;;;;11.18;100.00;-18206.81;5117073;28;20202;-33
2021/05/15 02:43:30;;;;;;;1999.90;999.90;;;;;;;11.43;100.00;-18213.22;5117536;28;20215;-37
2021/05/15 02:46:16;;;;;;;1999.90;999.90;;;;;;;11.17;100.00;-18206.41;5119188;28;20555;-34
2021/05/15 02:49:01;;;;;;;1999.90;999.90;;;;;;;11.00;100.00;-18202.13;5120369;28;20329;-34
2021/05/15 02:51:48;;;;;;;1999.90;999.90;;;;;;;11.31;100.00;-18210.16;5120480;28;20619;-32
2021/05/15 02:54:34;;;;;;;1999.90;999.90;;;;;;;11.25;100.00;-18208.69;5120711;28;20248;-37
2021/05/15 02:57:19;;;;;;;1999.90;999.90;;;;;;;11.12;100.00;-18205.09;5120647;28;20199;-38
2021/05/15 03:00:06;;;;;;;1999.90;999.90;;;;;;;11.18;100.00;-18206.81;5120938;28;20215;-36
2021/05/15 03:02:52;;;;;;;1999.90;999.90;;;;;;;11.53;100.00;-18216.03;5120713;28;20196;-34
2021/05/15 03:05:38;;;;;;;1999.90;999.90;;;;;;;11.19;100.00;-18206.94;5120302;28;20577;-33
2021/05/15 03:08:23;;;;;;;1999.90;999.90;;;;;;;11.23;100.00;-18208.16;5120327;28;20203;-32
2021/05/15 03:11:08;;;;;;;1999.90;999.90;;;;;;;11.30;100.00;-18210.03;5120652;28;20203;-33
2021/05/15 03:13:53;;;;;;;1999.90;999.90;;;;;;;11.46;100.00;-18214.03;5119846;28;20248;-37
2021/05/15 03:16:38;;;;;;;1999.90;999.90;;;;;;;11.21;100.00;-18207.47;5120232;28;20202;-35
2021/05/15 03:19:24;;;;;;;1999.90;999.90;;;;;;;11.29;100.00;-18209.75;5120143;28;20266;-32
2021/05/15 03:22:09;;;;;;;1999.90;999.90;;;;;;;11.29;100.00;-18209.63;5119814;28;20210;-33
2021/05/15 03:24:54;;;;;;;1999.90;999.90;;;;;;;11.67;100.00;-18219.78;5120084;28;20199;-33
2021/05/15 03:27:39;;;;;;;1999.90;999.90;;;;;;;11.07;100.00;-18203.88;5119908;28;20226;-35
2021/05/15 03:30:24;;;;;;;1999.90;999.90;;;;;;;11.58;100.00;-18217.38;5119825;28;20545;-32
2021/05/15 03:33:09;;;;;;;1999.90;999.90;;;;;;;11.58;100.00;-18217.38;5119535;28;20583;-33
2021/05/15 03:35:55;;;;;;;1999.90;999.90;;;;;;;11.40;100.00;-18212.56;5120043;28;20477;-37
2021/05/15 03:38:40;;;;;;;1999.90;999.90;;;;;;;11.62;100.00;-18218.44;5119494;28;20199;-33
2021/05/15 03:41:25;;;;;;;1999.90;999.90;;;;;;;11.91;100.00;-18225.94;5119640;28;20540;-34
2021/05/15 03:44:10;;;;;;;1999.90;999.90;;;;;;;11.63;100.00;-18218.56;5119224;28;20241;-35
2021/05/15 03:46:55;;;;;;;1999.90;999.90;;;;;;;11.71;100.00;-18220.84;5118967;28;20197;-35
2021/05/15 03:49:40;;;;;;;1999.90;999.90;;;;;;;11.60;100.00;-18217.91;5119787;28;20200;-32
2021/05/15 03:52:30;;;;;;;1999.90;999.90;;;;;;;11.19;100.00;-18207.09;5119655;28;20302;-33
2021/05/15 03:55:19;;;;;;;1999.90;999.90;;;;;;;11.39;100.00;-18212.44;5119550;28;20498;-36
2021/05/15 03:58:04;;;;;;;1999.90;999.90;;;;;;;11.20;100.00;-18207.34;5118684;28;20200;-32
2021/05/15 04:00:50;;;;;;;1999.90;999.90;;;;;;;11.24;100.00;-18208.28;5119486;28;20255;-36
2021/05/15 04:03:35;;;;;;;1999.90;999.90;;;;;;;11.49;100.00;-18214.97;5119107;28;20197;-36
2021/05/15 04:06:22;;;;;;;1999.90;999.90;;;;;;;11.23;100.00;-18208.03;5119501;28;20203;-37
2021/05/15 04:09:09;;;;;;;1999.90;999.90;;;;;;;11.57;100.00;-18217.09;5119033;28;20271;-33
2021/05/15 04:11:57;;;;;;;1999.90;999.90;;;;;;;11.50;100.00;-18215.22;5119030;28;20234;-34
2021/05/15 04:14:45;;;;;;;1999.90;999.90;;;;;;;11.33;100.00;-18210.69;5118738;28;20275;-34
2021/05/15 04:17:30;;;;;;;1999.90;999.90;;;;;;;11.62;100.00;-18218.44;5118508;28;20256;-34
2021/05/15 04:20:15;;;;;;;1999.90;999.90;;;;;;;11.60;100.00;-18217.91;5118966;28;20217;-33
2021/05/15 04:23:00;;;;;;;1999.90;999.90;;;;;;;11.61;100.00;-18218.03;5118903;28;20205;-34
2021/05/15 04:25:48;;;;;;;1999.90;999.90;;;;;;;11.47;100.00;-18214.44;5118226;28;20474;-34
2021/05/15 04:28:34;;;;;;;1999.90;999.90;;;;;;;11.70;100.00;-18220.56;5118667;28;20208;-35
2021/05/15 04:31:19;;;;;;;1999.90;999.90;;;;;;;11.51;100.00;-18215.50;5118330;28;20204;-35
2021/05/15 04:34:07;;;;;;;1999.90;999.90;;;;;;;11.56;100.00;-18216.72;5118455;28;20597;-36
2021/05/15 04:36:52;;;;;;;1999.90;999.90;;;;;;;11.85;100.00;-18224.47;5118658;28;20205;-35
2021/05/15 04:39:41;;;;;;;1999.90;999.90;;;;;;;11.87;100.00;-18224.84;5118612;28;20201;-34
2021/05/15 04:42:39;;;;;;;1999.90;999.90;;;;;;;12.15;100.00;-18232.19;5122618;28;20182;-36
2021/05/15 04:45:27;;;;;;;1999.90;999.90;;;;;;;11.86;100.00;-18224.72;5118730;28;20243;-36
2021/05/15 04:48:12;;;;;;;1999.90;999.90;;;;;;;11.76;100.00;-18222.06;5118688;28;20201;-34
2021/05/15 04:50:57;;;;;;;1999.90;999.90;;;;;;;12.03;100.00;-18229.25;5118651;28;20335;-34
2021/05/15 04:53:43;;;;;;;1999.90;999.90;;;;;;;12.23;100.00;-18234.47;5118451;28;20320;-34
2021/05/15 04:56:28;;;;;;;1999.90;999.90;;;;;;;11.58;100.00;-18217.38;5120024;28;20297;-36
2021/05/15 04:59:14;;;;;;;1999.90;999.90;;;;;;;11.64;100.00;-18218.97;5119732;28;20220;-34
2021/05/15 05:01:59;;;;;;;1999.90;999.90;;;;;;;11.90;100.00;-18225.78;5118595;28;20616;-34
2021/05/15 05:04:44;;;;;;;1999.90;999.90;;;;;;;12.47;100.00;-18240.63;5118567;28;20214;-34
2021/05/15 05:07:30;;;;;;;1999.90;999.90;;;;;;;11.72;100.00;-18220.97;5118353;28;20205;-32
2021/05/15 05:10:18;;;;;;;1999.90;999.90;;;;;;;11.86;100.00;-18224.59;5117602;28;20244;-37
2021/05/15 05:13:03;;;;;;;1999.90;999.90;;;;;;;11.83;100.00;-18223.91;5117388;28;20226;-35
2021/05/15 05:15:49;;;;;;;1999.90;999.90;;;;;;;11.64;100.00;-18218.84;5117904;28;20289;-33
2021/05/15 05:18:34;;;;;;;1999.90;999.90;;;;;;;12.01;100.00;-18228.72;5117434;28;20312;-34
2021/05/15 05:21:19;;;;;;;1999.90;999.90;;;;;;;12.03;100.00;-18229.25;5118035;28;20293;-34
2021/05/15 05:24:05;;;;;;;1999.90;999.90;;;;;;;11.69;100.00;-18220.19;5118054;28;20194;-35
2021/05/15 05:26:50;;;;;;;1999.90;999.90;;;;;;;12.19;100.00;-18233.41;5117699;28;20198;-34
2021/05/15 05:29:36;;;;;;;1999.90;999.90;;;;;;;12.46;100.00;-18240.47;5117751;28;20213;-33
2021/05/15 05:32:25;;;;;;;1999.90;999.90;;;;;;;12.22;100.00;-18234.06;5117556;28;20229;-37
2021/05/15 05:35:11;;;;;;;1999.90;999.90;;;;;;;12.49;100.00;-18241.16;5117412;28;20312;-35
2021/05/15 05:37:56;;;;;;;1999.90;999.90;;;;;;;12.52;100.00;-18242.09;5117606;28;20214;-36
2021/05/15 05:40:41;;;;;;;1999.90;999.90;;;;;;;12.61;100.00;-18244.34;5117105;28;20529;-35
2021/05/15 05:43:26;;;;;;;1999.90;999.90;;;;;;;11.87;100.00;-18225.00;5116996;28;20229;-32
2021/05/15 05:46:13;;;;;;;1999.90;999.90;;;;;;;11.72;100.00;-18221.13;5117612;28;20256;-33
2021/05/15 05:49:00;;;;;;;1999.90;999.90;;;;;;;12.31;100.00;-18236.47;5117728;28;20202;-34
2021/05/15 05:51:45;;;;;;;1999.90;999.90;;;;;;;12.34;100.00;-18237.28;5117656;28;20197;-35
2021/05/15 05:54:30;;;;;;;1999.90;999.90;;;;;;;12.20;100.00;-18233.66;5116891;28;20226;-35
2021/05/15 05:57:15;;;;;;;1999.90;999.90;;;;;;;12.72;100.00;-18247.41;5117440;28;20190;-36
2021/05/15 06:00:00;;;;;;;1999.90;999.90;;;;;;;12.23;100.00;-18234.34;5117041;28;20205;-34
2021/05/15 06:02:45;;;;;;;1999.90;999.90;;;;;;;12.51;100.00;-18241.81;5117149;28;20189;-38
2021/05/15 06:05:31;;;;;;;1999.90;999.90;;;;;;;12.21;100.00;-18233.81;5117415;28;20265;-35
2021/05/15 06:08:20;;;;;;;1999.90;999.90;;;;;;;12.34;100.00;-18237.41;5117240;28;20198;-32
2021/05/15 06:11:06;;;;;;;1999.90;999.90;;;;;;;12.86;100.00;-18250.88;5117084;28;20190;-37
2021/05/15 06:13:52;;;;;;;1999.90;999.90;;;;;;;12.38;100.00;-18238.34;5116774;28;20295;-38
2021/05/15 06:16:37;;;;;;;1999.90;999.90;;;;;;;13.00;100.00;-18254.75;5117371;28;20194;-34
2021/05/15 06:19:22;;;;;;;1999.90;999.90;;;;;;;12.40;100.00;-18238.88;5117050;28;20257;-35
2021/05/15 06:22:08;;;;;;;1999.90;999.90;;;;;;;12.61;100.00;-18244.47;5118857;28;20299;-36
2021/05/15 06:24:53;;;;;;;1999.90;999.90;;;;;;;12.24;100.00;-18234.75;5121488;28;20202;-34
2021/05/15 06:27:38;;;;;;;1999.90;999.90;;;;;;;12.17;100.00;-18232.75;5120507;28;20206;-35
2021/05/15 06:30:23;;;;;;;1999.90;999.90;;;;;;;12.42;100.00;-18239.41;5121286;28;20203;-37
2021/05/15 06:33:08;;;;;;;1999.90;999.90;;;;;;;12.37;100.00;-18238.06;5120447;28;20218;-34
2021/05/15 06:35:53;;;;;;;1999.90;999.90;;;;;;;12.20;100.00;-18233.66;5120915;28;20202;-32
2021/05/15 06:38:41;;;;;;;1999.90;999.90;;;;;;;12.24;100.00;-18234.75;5120545;28;20198;-37
2021/05/15 06:41:26;;;;;;;1999.90;999.90;;;;;;;12.52;100.00;-18241.94;5120830;28;20256;-35
2021/05/15 06:44:13;;;;;;;1999.90;999.90;;;;;;;12.69;100.00;-18246.63;5120554;28;20191;-33
2021/05/15 06:46:58;;;;;;;1999.90;999.90;;;;;;;12.87;100.00;-18251.16;5120251;28;20462;-35
2021/05/15 06:49:44;;;;;;;1999.90;999.90;;;;;;;12.88;100.00;-18251.41;5120310;28;20592;-34
2021/05/15 06:52:29;;;;;;;1999.90;999.90;;;;;;;13.01;100.00;-18255.03;5120076;28;20732;-34
2021/05/15 06:55:16;;;;;;;1999.90;999.90;;;;;;;13.56;100.00;-18269.31;5120465;28;20195;-34
2021/05/15 06:58:04;;;;;;;1999.90;999.90;;;;;;;13.43;100.00;-18266.09;5120337;28;20198;-34
2021/05/15 07:00:51;;;;;;;1999.90;999.90;;;;;;;13.08;100.00;-18256.75;5120114;28;20191;-36
2021/05/15 07:03:36;;;;;;;1999.90;999.90;;;;;;;12.65;100.00;-18245.41;5120660;28;20202;-35
2021/05/15 07:06:21;;;;;;;1999.90;999.90;;;;;;;12.99;100.00;-18254.50;5119683;28;20600;-34
2021/05/15 07:09:08;;;;;;;1999.90;999.90;;;;;;;13.38;100.00;-18264.78;5120671;28;20203;-32
2021/05/15 07:11:55;;;;;;;1999.90;999.90;;;;;;;14.08;100.00;-18283.03;5120217;28;20607;-36
2021/05/15 07:14:40;;;;;;;1999.90;999.90;;;;;;;14.23;100.00;-18286.91;5119593;28;20331;-37
2021/05/15 07:17:28;;;;;;;1999.90;999.90;;;;;;;13.54;100.00;-18268.78;5119407;28;20206;-34
2021/05/15 07:20:14;;;;;;;1999.90;999.90;;;;;;;14.40;100.00;-18291.44;5120089;28;20198;-37
2021/05/15 07:22:59;;;;;;;1999.90;999.90;;;;;;;13.63;100.00;-18271.31;5119474;28;20287;-35
2021/05/15 07:25:49;;;;;;;1999.90;999.90;;;;;;;13.37;100.00;-18264.50;5119736;28;20242;-37
2021/05/15 07:28:35;;;;;;;1999.90;999.90;;;;;;;15.35;100.00;-18316.47;5119572;28;20224;-36
2021/05/15 07:31:20;;;;;;;1999.90;999.90;;;;;;;15.30;100.00;-18315.16;5118993;28;20291;-35
2021/05/15 07:34:06;;;;;;;1999.90;999.90;;;;;;;15.28;100.00;-18314.63;5119740;28;20337;-35
2021/05/15 07:36:50;;;;;;;1999.90;999.90;;;;;;;16.67;100.00;-18351.09;5118814;28;20523;-37
2021/05/15 07:39:39;;;;;;;1999.90;999.90;;;;;;;15.39;100.00;-18317.53;5099281;28;20211;-38
2021/05/15 07:42:24;;;;;;;1999.90;999.90;;;;;;;15.61;100.00;-18323.28;5099478;28;20519;-38
2021/05/15 07:45:14;;;;;;;1999.90;999.90;;;;;;;15.39;100.00;-18317.41;5099462;28;20236;-35
2021/05/15 07:48:00;;;;;;;1999.90;999.90;;;;;;;14.73;100.00;-18300.09;5099298;28;20504;-36
2021/05/15 07:50:45;;;;;;;1999.90;999.90;;;;;;;14.53;100.00;-18294.91;5098853;28;20597;-35
2021/05/15 07:53:30;;;;;;;1999.90;999.90;;;;;;;15.91;100.00;-18331.00;5098305;28;20358;-38
2021/05/15 07:56:15;;;;;;;1999.90;999.90;;;;;;;16.66;100.00;-18350.69;5114762;27;20240;-33
2021/05/15 07:59:01;;;;;;;1999.90;999.90;;;;;;;16.04;100.00;-18334.44;5112488;27;20207;-38
2021/05/15 08:01:48;;;;;;;1999.90;999.90;;;;;;;17.03;100.00;-18360.41;5119159;28;20754;-39
2021/05/15 08:04:35;;;;;;;1999.90;999.90;;;;;;;17.46;100.00;-18371.81;5119027;28;20195;-38
2021/05/15 08:07:25;;;;;;;1999.90;999.90;;;;;;;16.37;100.00;-18343.09;5119344;28;20239;-38
2021/05/15 08:10:12;;;;;;;1999.90;999.90;;;;;;;16.02;100.00;-18333.91;5118821;28;20209;-35
2021/05/15 08:12:58;;;;;;;1999.90;999.90;;;;;;;16.59;100.00;-18348.81;5118760;28;20282;-36
2021/05/15 08:15:44;;;;;;;1999.90;999.90;;;;;;;16.27;100.00;-18340.56;5077535;28;20206;-36
2021/05/15 08:18:32;;;;;;;1999.90;999.90;;;;;;;15.47;100.00;-18319.69;5077718;28;20222;-36
2021/05/15 08:21:17;;;;;;;1999.90;999.90;;;;;;;16.22;100.00;-18339.09;5078446;28;20515;-35
2021/05/15 08:24:02;;;;;;;1999.90;999.90;;;;;;;16.44;100.00;-18344.97;5077384;28;20240;-38
2021/05/15 08:26:50;;;;;;;1999.90;999.90;;;;;;;16.56;100.00;-18348.03;5077097;28;20217;-37
2021/05/15 08:29:35;;;;;;;1999.90;999.90;;;;;;;16.54;100.00;-18347.63;5077947;28;20557;-36
2021/05/15 08:32:20;;;;;;;1999.90;999.90;;;;;;;16.54;100.00;-18347.75;5077391;28;20259;-39
2021/05/15 08:35:08;;;;;;;1999.90;999.90;;;;;;;18.36;100.00;-18395.22;5077691;28;20203;-36
2021/05/15 08:37:54;;;;;;;1999.90;999.90;;;;;;;20.22;87.28;-18444.03;5077874;28;20215;-34
2021/05/15 08:40:39;;;;;;;1999.90;999.90;;;;;;;17.54;100.00;-18373.94;5077520;28;20204;-36
2021/05/15 08:43:26;;;;;;;1999.90;999.90;;;;;;;16.14;100.00;-18337.25;5077239;28;20200;-37
2021/05/15 08:46:17;;;;;;;1999.90;999.90;;;;;;;15.64;100.00;-18324.06;5075718;28;20443;-38
2021/05/15 08:49:05;;;;;;;1999.90;999.90;;;;;;;16.28;100.00;-18340.84;5076751;28;20355;-39
2021/05/15 08:51:53;;;;;;;1999.90;999.90;;;;;;;15.70;100.00;-18325.53;5076103;28;20279;-37
2021/05/15 08:54:38;;;;;;;1999.90;999.90;;;;;;;14.41;100.00;-18291.69;5077427;28;20483;-38
2021/05/15 08:57:23;;;;;;;1999.90;999.90;;;;;;;14.11;100.00;-18283.97;5077120;28;20590;-33
2021/05/15 09:00:11;;;;;;;1999.90;999.90;;;;;;;12.96;100.00;-18253.69;5077264;28;20193;-32
2021/05/15 09:02:59;;;;;;;1999.90;999.90;;;;;;;12.36;100.00;-18237.94;5076635;28;20242;-36
2021/05/15 09:05:48;;;;;;;1999.90;999.90;;;;;;;12.67;100.00;-18246.09;5076731;28;20463;-37
2021/05/15 09:08:37;;;;;;;1999.90;999.90;;;;;;;13.07;100.00;-18256.63;5077223;28;20467;-36
2021/05/15 09:11:25;;;;;;;1999.90;999.90;;;;;;;13.93;100.00;-18279.03;5076604;28;20297;-36
2021/05/15 09:14:15;;;;;;;1999.90;999.90;;;;;;;14.36;100.00;-18290.38;5096590;28;20229;-36
2021/05/15 09:17:01;;;;;;;1999.90;999.90;;;;;;;14.41;100.00;-18291.84;5117273;28;20333;-35
2021/05/15 09:19:52;;;;;;;1999.90;999.90;;;;;;;14.55;100.00;-18295.31;5117681;28;20210;-36
2021/05/15 09:22:38;;;;;;;1999.90;999.90;;;;;;;14.26;100.00;-18287.84;5117149;28;20472;-37
2021/05/15 09:25:34;;;;;;;1999.90;999.90;;;;;;;15.08;100.00;-18309.41;5116873;28;20328;-36
2021/05/15 09:28:34;;;;;;;1999.90;999.90;;;;;;;14.99;100.00;-18307.03;5117076;28;20535;-33
2021/05/15 09:31:23;;;;;;;1999.90;999.90;;;;;;;14.17;100.00;-18285.44;5116476;28;20206;-36
2021/05/15 09:34:11;;;;;;;1999.90;999.90;;;;;;;14.54;100.00;-18295.03;5116715;28;20230;-34
2021/05/15 09:36:57;;;;;;;1999.90;999.90;;;;;;;13.77;100.00;-18275.03;5117398;28;20198;-32
2021/05/15 09:39:44;;;;;;;1999.90;999.90;;;;;;;14.11;100.00;-18283.97;5116896;28;20279;-36
2021/05/15 09:42:32;;;;;;;1999.90;999.90;;;;;;;14.76;100.00;-18301.03;5116747;28;20253;-33
2021/05/15 09:45:27;;;;;;;1999.90;999.90;;;;;;;16.34;100.00;-18342.44;5117137;28;20333;-36
2021/05/15 09:48:34;;;;;;;1999.90;999.90;;;;;;;15.25;100.00;-18313.81;5116638;28;20202;-35
2021/05/15 09:51:23;;;;;;;1999.90;999.90;;;;;;;13.99;100.00;-18280.63;5116968;28;20470;-37
2021/05/15 09:54:17;;;;;;;1999.90;999.90;;;;;;;13.79;100.00;-18275.44;5117159;28;20628;-34
2021/05/15 09:57:06;;;;;;;1999.90;999.90;;;;;;;13.76;100.00;-18274.63;5120446;28;20260;-35
2021/05/15 09:59:56;;;;;;;1999.90;999.90;;;;;;;12.87;100.00;-18251.16;5121751;28;20199;-36
2021/05/15 10:02:52;;;;;;;1999.90;999.90;;;;;;;13.34;100.00;-18263.56;5121073;28;20199;-33
2021/05/15 10:05:43;;;;;;;1999.90;999.90;;;;;;;15.15;100.00;-18311.16;5121597;28;20190;-36
2021/05/15 10:08:38;;;;;;;1999.90;999.90;;;;;;;16.16;100.00;-18337.66;5120560;28;20474;-32
2021/05/15 10:11:25;;;;;;;1999.90;999.90;;;;;;;15.69;100.00;-18325.28;5120951;28;20196;-34
2021/05/15 10:14:12;;;;;;;1999.90;999.90;;;;;;;17.73;100.00;-18378.75;5120926;28;20242;-36
2021/05/15 10:17:06;;;;;;;1999.90;999.90;;;;;;;16.78;100.00;-18354.00;5121043;28;20202;-34
2021/05/15 10:19:52;;;;;;;1999.90;999.90;;;;;;;16.76;100.00;-18353.47;5120682;28;20202;-36
2021/05/15 10:22:39;;;;;;;1999.90;999.90;;;;;;;17.09;100.00;-18362.13;5120530;28;20199;-35
2021/05/15 10:25:31;;;;;;;1999.90;999.90;;;;;;;17.38;100.00;-18369.69;5120053;28;20200;-37
2021/05/15 10:28:32;;;;;;;1999.90;999.90;;;;;;;16.63;100.00;-18350.03;5119836;28;20198;-34
2021/05/15 10:31:25;;;;;;;1999.90;999.90;;;;;;;17.58;100.00;-18374.88;5119958;28;20202;-38
2021/05/15 10:34:30;;;;;;;1999.90;999.90;;;;;;;16.56;100.00;-18348.16;5100290;28;20640;-34
2021/05/15 10:37:18;;;;;;;1999.90;999.90;;;;;;;16.24;100.00;-18339.78;5115258;28;20549;-37
2021/05/15 10:40:14;;;;;;;1999.90;999.90;;;;;;;14.91;100.00;-18304.75;5120658;28;20595;-35
2021/05/15 10:43:05;;;;;;;1999.90;999.90;;;;;;;15.07;100.00;-18309.03;5120609;28;20214;-36
2021/05/15 10:46:02;;;;;;;1999.90;999.90;;;;;;;15.50;100.00;-18320.34;5120383;28;20207;-34
2021/05/15 10:49:06;;;;;;;1999.90;999.90;;;;;;;15.57;100.00;-18322.06;5120792;28;20201;-34
2021/05/15 10:52:12;;;;;;;1999.90;999.90;;;;;;;15.45;100.00;-18319.16;5120406;28;20353;-38
2021/05/15 10:55:02;;;;;;;1999.90;999.90;;;;;;;16.90;100.00;-18356.94;5120451;28;20223;-36
2021/05/15 10:57:48;;;;;;;1999.90;999.90;;;;;;;17.09;100.00;-18362.13;5120527;28;20259;-37
2021/05/15 11:00:37;;;;;;;1999.90;999.90;;;;;;;18.53;100.00;-18399.72;5119982;28;20205;-36
2021/05/15 11:03:34;;;;;;;1999.90;999.90;;;;;;;17.80;100.00;-18380.72;5119400;28;20297;-34
2021/05/15 11:06:20;;;;;;;1999.90;999.90;;;;;;;16.99;100.00;-18359.34;5118892;28;20241;-36
2021/05/15 11:09:11;;;;;;;1999.90;999.90;;;;;;;19.05;100.00;-18413.41;5118906;28;20547;-37
2021/05/15 11:12:05;;;;;;;1999.90;999.90;;;;;;;19.04;100.00;-18413.13;5118985;28;20516;-35
2021/05/15 11:15:01;;;;;;;1999.90;999.90;;;;;;;18.03;100.00;-18386.72;5119172;28;20242;-34
2021/05/15 11:18:02;;;;;;;1999.90;999.90;;;;;;;17.63;100.00;-18376.22;5119806;28;20594;-35
2021/05/15 11:20:53;;;;;;;1999.90;999.90;;;;;;;18.32;100.00;-18394.28;5119581;28;20736;-39
2021/05/15 11:23:49;;;;;;;1999.90;999.90;;;;;;;16.63;100.00;-18350.03;5119417;28;20198;-34
2021/05/15 11:26:49;;;;;;;1999.90;999.90;;;;;;;15.03;100.00;-18308.09;5119940;28;20600;-38
2021/05/15 11:29:38;;;;;;;1999.90;999.90;;;;;;;14.63;100.00;-18297.56;5119496;28;20193;-36
2021/05/15 11:32:24;;;;;;;1999.90;999.90;;;;;;;14.34;100.00;-18289.97;5119512;28;20198;-35
2021/05/15 11:35:12;;;;;;;1999.90;999.90;;;;;;;13.76;100.00;-18274.63;5119744;28;20238;-37
2021/05/15 11:38:08;;;;;;;1999.90;999.90;;;;;;;13.87;100.00;-18277.44;5119502;28;20277;-35
2021/05/15 11:41:02;;;;;;;1999.90;999.90;;;;;;;15.29;100.00;-18314.75;5119305;28;20194;-38
2021/05/15 11:43:50;;;;;;;1999.90;999.90;;;;;;;15.26;100.00;-18313.94;5119250;28;20280;-37
2021/05/15 11:46:45;;;;;;;1999.90;999.90;;;;;;;15.30;100.00;-18315.16;5119762;28;20199;-38
2021/05/15 11:49:34;;;;;;;1999.90;999.90;;;;;;;15.51;100.00;-18320.59;5119378;28;20206;-38
2021/05/15 11:52:32;;;;;;;1999.90;999.90;;;;;;;14.76;100.00;-18300.91;5118703;28;20202;-35
2021/05/15 11:55:23;;;;;;;1999.90;999.90;;;;;;;15.27;100.00;-18314.22;5118581;28;20233;-37
2021/05/15 11:58:09;;;;;;;1999.90;999.90;;;;;;;15.87;100.00;-18329.94;5118623;28;20194;-38
2021/05/15 12:00:58;;;;;;;1999.90;999.90;;;;;;;16.04;100.00;-18334.44;5118804;28;20222;-35
2021/05/15 12:03:46;;;;;;;1999.90;999.90;;;;;;;15.32;100.00;-18315.69;5118786;28;20202;-36
2021/05/15 12:06:35;;;;;;;1999.90;999.90;;;;;;;16.44;100.00;-18344.97;5118118;28;20593;-35
2021/05/15 12:09:29;;;;;;;1999.90;999.90;;;;;;;16.38;100.00;-18343.38;5118682;28;20283;-34